Timeline UpdatesTrip UpdatesNews PostsPvt PostsTravel TipsAdmin PostsConv PostsFollowed PostsChat RequestsBlog PostsPNR Posts

Disclaimer
Search
 
 
Fri Apr 25, 2014 12:19:49 ISTHomeTrainsΣChainsAtlasPNRForumGalleryNewsFAQTripsMembersLoginFeedback
No Recent News for this Train
Other Trains in the News **new
Latest...
Permanent Augmentation of 1 3A coach wef 10/4/14
Fri Apr 04, 2014 (07:10PM)
⇐ Return Journey: Train# 11058

11057/Mumbai LTT - Amritsar (Pathankot) Express

Dec 31 2013 (1:15PM)
Change Departure Station:
Change Arrival Station:
Post a Train Travel TipPost a Train Travel Tip **new
Post a Comment/Question/Picture/VideoPost a Comment/Question/Picture/Video
Pantry/Catering
✕ NO Pantry Car
✓ Catering Avbl
RSA - Rake Sharing
No RSA
Rake/Coach Composition
LOCO-SLR-GEN-GEN-MILITARY-A1-B2-B1-S8-S7-S6-S5-S4-S3-S2-S1-RMS-LDS-[B2-S9-S10-SLR]. ; [B3-S9-S10-SLR] -> Is the Slip portion for Dhule and bifurcates from the main train at Chalisgaon.
Loco
LTT-UMB --> GZB WAP-1/4/7 UMB-ASR --> TKD WDM3A/WDP3A
News    PNR    Forum    Time-Table    Availability    Fare Chart    Map    Arr/Dep History    Trips    Gallery    ΣChains    X/O    Timeline    
Travel Time: 8h 58m    18 halts    Distance: 501 km    Avg Speed: 55 km/hr
Type: Mail/Express
Zone: CR/Central
Departs @ 18:23 (Avg 48m late)
Platform# ???
SMTWTFS
Dhaura/DUA 
Arrives @ 03:21 +1 night (Avg 1h 3m late)
Platform# 2
SMTWTFS
Faridabad/FDB 

18 halts. 63 intermediate Stations between Dhaura and Faridabad

Show ALL intermediate Stations  Show Old Time-Table

#CodeStation NameX/OArrivesAvgDepartsAvgHaltPFDay#KmSpeedElevZoneAddress
1LTTMumbai Lokmanya Tilak Terminus (5)  -23:45+231-997.8457mCRMumbai, Maharashtra
2TNAThane (10)  00:07+600:10+63m72-981.36110mCRThane, Maharashtra
3KYNKalyan Junction (8)  00:30+1400:35+165m42-961.15910mCRKalyan 421301, Maharashtra
4KSRAKasara (4)  01:43+1601:45+222m12-893.729290mCRDist. Thane 421602, Maharashtra
5IGPIgatpuri (4)X02:15+1602:20+225m22-879.356589mCRIgatpuri 422403, Maharashtra
6DVLDevlali (3)X  03:08+1903:10+212m12-834.469561mCRDist. Nashik 422401, Maharashtra
7NKNasik Road (3)X  03:15+2303:20+225m12-828.697563mCRNashik 422101, Maharashtra
8MMRManmad Junction (6)X  04:05+2904:10+285m22-755.976580mCRManmad 423104, Maharashtra
9CSNChalisgaon Junction (3)  05:03+2605:05+292m--2-688.396352mCRChalisgaon 424101, Maharashtra
10PCPachora Junction (4)  05:33+3005:35+312m--2-643.587264mCRPachora 424201, Maharashtra
11JLJalgaon Junction (4)X  06:08+3306:10+342m32-595.848213mCRJalgaon 425001, Maharashtra
12BSLBhusaval Junction (8)  06:40+3206:50+3510m62-571.771208mCRBhusaval 425201, Maharashtra
13SAVSavda (2)X  07:03+4207:05+412m--2-556.265220mCRSavda, Maharashtra
14NBNimbhoraXO  07:13+4207:15+412m--2-547.576229mCRJalgaon, Maharashtra
15RVRaver (2)X  07:23+4307:25+432m--2-537.467242mCRJalgaon, Maharashtra
16BAUBurhanpur (2)  07:43+4307:45+432m22-517.287269mCRBurhanpur, Madhya Pradesh
17NPNRNepanagar (2)X  08:03+4708:05+472m--2-491.028289mCRState Highway 27, Madhya Pradesh
18KNWKhandwa Junction (5)X  09:35+309:40+85m22-448.373310mCRKhandwa, Madhya Pradesh
19TLVTalvadiya (2)X  09:53+1309:55+132m--2-432.699308mWCRKhandwa, Madhya Pradesh
20CAERChhanera (2)X  10:13+1710:15+222m--2-402.988283mWCRChhanera, Madhya Pradesh
21KKNKhirkiya (2)XO  10:36+2510:38+382m22-372.273281mWCRSH 15, Madhya Pradesh
22HDHarda (3)X  11:04+3811:06+382m--2-340.761289mWCRHarda, Madhya Pradesh
23TBNTimarni (2)O  11:20+3711:22+542m--2-326.640308mWCRTimarni, Madhya Pradesh
24BPFBanapura (2)O  12:04+3712:06+392m--2-298.346314mWCRBanapura, Madhya Pradesh
25ETItarsi Junction (7)  12:50+3512:55+415m12-264.960329mWCRItarsi 461111, Madhya Pradesh
26HBDHoshangabad (4)X  13:13+4313:15+432m--2-246.842308mWCRHoshangabad, Madhya Pradesh
27BNIBudni  13:25+4513:27+472m--2-239.851311mWCRSehore MP 466445 Madhya pradesh, Madhya Pradesh
28ODGObaidulla GanjO  14:03+5614:05+562m22-209.158450mWCRObaidullaganj Raisen Dist., Madhya Pradesh
29MDDPMandi Dip (1)O  14:19+5714:21+572m12-195.557449mWCRMandideep, Madhya Pradesh
30HBJBhopal HabibGanj (5)XO  14:38+5914:40+592m12-179.415496mWCRHabibGanj, Madhya Pradesh
31BPLBhopal Junction (6)  15:05+5015:10+565m22-173.285497mWCRBhopal, Madhya Pradesh
32SCISanchi (2)X  15:41+5515:43+552m22-129.043428mWCRRaisen, Madhya Pradesh
33BHSVidisha (3)  15:56+5415:58+542m12-119.670432mWCRVidisha, Madhya Pradesh
34GLGGulabhGanj (3)  16:16+5416:18+552m12-98.692432mWCRVidisha, Madhya Pradesh
35BAQGanj Basoda (4)X  16:30+5816:32+572m12-80.371416mWCRVidisha, Madhya Pradesh
36MABAMandi Bamora (3)XO  16:56+5716:58+572m12-51.825413mWCRState Highway 14, Madhya Pradesh
37BINABina Junction (5)X  17:40+4417:45+455m32-34.658414mWCRJn Pt - KATNI/GUNA/ BPL/JHS, Madhya Pradesh
38DUA»Dhaura (3)»X  18:21+4718:23+482m--20.053407mNCRDhaura Tanda, Madhya Pradesh
39JLNJakhalaun (3)  18:36+4518:37+471m1211.672394mNCRLalitpur(05176-272220), Uttar Pradesh
40LARLalitpur (3)  18:51+4918:53+492m3228.386373mNCRLalitpur, Uttar Pradesh
41TBTTalbahat (4)X  19:21+5219:23+532m3268.259314mNCRKhaniyadhana Station Rd, Madhya Pradesh
42BZYBasai (3)X  19:36+5219:38+522m2281.060287mNCR07522289600(Gate ManMob. - 9452701575), Madhya Pradesh
43BABBabina (3)X  19:50+5319:52+532m1293.140285mNCRBabina, Uttar Pradesh
44JHSJhansi Junction (7)X  20:30+4720:38+518m52118.668259mNCRJhansi, Uttar Pradesh
45DAADatia (2)X  21:00+5521:02+552m--2143.763264mNCRDatia, Madhya Pradesh
46SORSonagirX  21:13+5521:15+562m--2155.271211mNCRDatia, Madhya Pradesh
47DBADabra (3)X  21:31+5821:33+592m--2174.069204mNCRDabra(District-Gwalior), Madhya Pradesh
48GWLGwalior Junction (4)X  22:10+1:0622:18+1:048m22216.393214mNCRGwalior, Madhya Pradesh
49MRAMorena (3)X  22:43+1:1222:45+1:132m22254.970176mNCRMorena, Madhya Pradesh
50DHODholpur Junction (3)X  23:08+1:1223:10+1:122m12281.754177mNCRDholpur, Rajasthan
51AGCAgra Cantt. (6)X  00:08+1:0800:18+1:0910m23334.334174mNCRAgra, Uttar Pradesh
52RKMRaja Ki Mandi (4)  00:25+1:1400:27+1:142m13338.469170mNCRAgra, Uttar Pradesh
53MTJMathura Junction (10)X  01:10+1:1801:20+1:1410m33388.089179mNCRMathura, Uttar Pradesh
54KSVKosi Kalan (3)  01:48+1:1901:50+1:202m13429.544189mNCRKosi Kalan, Uttar Pradesh
55PWLPalwal (8)  02:48+5602:50+1:002m--3471.971200mNRPalwal, Haryana
56BVHBallabgarh (5)  03:08+1:0103:10+1:012m33493.144203mNRFaridabad, Haryana
57FDB•Faridabad (4)•  03:21+1:0303:23+1:032m23501.252206mNRFaridabad, Haryana
58NZMDelhi Hazrat Nizamuddin (7)  03:47+1:1003:49+1:102m33522.021209mNRNizamuddin East/Sarai KaleKhan Bus Terminal, Delhi NCT
59NDLSNew Delhi (16)  04:10+1:1304:30+1:1120m23529.415215mNRAjmeri Gate/Paharganj, Delhi NCT
60SZMDelhi Sabzi Mandi (2)  04:46+1:1604:48+1:162m--3533.549220mNRGulabi Bagh, Delhi NCT
61BHDBadli (2)XO  05:01+1:1905:03+1:192m--3544.154217mNRRohini, Delhi NCT
62NURNarela (2)X  05:17+1:1905:19+1:222m--3556.838222mNRNarela, Delhi NCT
63SNPSonipat (3)X  05:46+1:1205:48+1:212m--3573.879225mNRSonipat, Haryana
64GNUGanaur  06:00+1:2606:02+1:272m--3589.739222mNRGanaur, Haryana
65SMKSamalkha (3)  06:21+1:2206:23+1:232m--3602.068229mNRSamalkha, Haryana
66PNPPanipat Junction (5)X  06:38+1:2406:40+1:242m33619.051235mNRPanipat, Haryana
67GRAGharaunda (2)  07:00+1:2007:02+1:222m--3635.966244mNRGharaunda, Haryana
68KUNKarnal (3)  07:18+1:2107:20+1:222m23653.452253mNRKarnal, Haryana
69TRRTaraori (2)  07:34+1:2007:36+1:212m--3665.530255mNRTaraori, Haryana
70NLKRNilokheriXO  07:44+1:1807:46+1:192m--3669.430254mNRNilokheri, Haryana
71KKDEKurukshetra Junction (3)  08:20+1:0508:22+1:062m13686.563260mNRKurukshetra, Haryana
72SHDMShahbad Markanda (2)X  08:43+1:0108:45+1:032m23708.734267mNRShahabad Markanda, Haryana
73UMBAmbala Cantt. Junction (7)X09:20+1:0009:40+1:0720m63728.638278mNRAmbala 133001, Haryana
74UBCAmbala City (3)X  09:52+1:1109:54+1:122m33736.272273mNRNH-1, Haryana
75RPJRajpura Junction (3)  10:11+1:1310:13+1:142m13756.768272mNRNH-1, Punjab
76PTAPatiala (4)X  10:35+1:2410:40+1:245m13781.555256mNRPatiala, Punjab
77NBANabha (1)  11:08+1:2111:10+1:222m13807.346250mNRNabha, Punjab
78DUIDhuri Junction (4)  11:45+1:1811:50+1:185m--3834.359248mNRDhuri, Punjab
79METMalerkotla (2)  12:07+1:2012:09+1:202m13851.131248mNRMalerkotla., Punjab
80AHHAhmadgarh (1)  12:48+1:0512:50+1:052m13870.944256mNRAhmedgarh, Punjab
81LDHLudhiana Junction (7)X  13:25+1:1613:35+1:2010m33896.334246mNRLudhiana 141001, Punjab
82PHRPhillaur Junction (3)X  13:58+1:1514:00+1:152m23909.464246mNRPhillaur, Punjab
83GRYGoraya (2)X  14:12+1:1514:14+1:152m23922.254240mNRGoraya, Punjab
84PGWPhagwara Junction (3)X  14:25+1:1514:27+1:152m23932.070245mNRPhagwara, Punjab
85JRCJalandhar Cantt. Junction (3)X  14:41+1:1514:43+1:152m13948.324239mNRNear Rama Mandi, Punjab
86JUCJalandhar City Junction (5)  14:55+1:1215:00+1:155m13953.156239mNRJalandhar 144001, Punjab
87BEASBeas Junction (2)X  15:39+1:0715:41+1:082m13989.280238mNRBeas, Punjab
88JNLJandiala (2)X  15:59+1:0716:01+1:072m131013.140238mNRJandiala, Punjab
89ASRAmritsar Junction (5)  16:30+57-431032.3-233mNRAmritsar 143002, Punjab
Scroll to Top
Scroll to Bottom